createdAt,value
2023-05-18T00:00:41.461Z,98299.47
2023-05-18T00:01:43.356Z,98307.75
2023-05-18T00:02:45.213Z,98310.16
2023-05-18T00:03:47.571Z,98308.28
2023-05-18T00:04:49.830Z,98308.06
2023-05-18T00:05:51.725Z,98305.63
2023-05-18T00:06:57.037Z,98305.91
2023-05-18T00:07:58.791Z,98300.59
2023-05-18T00:09:00.551Z,98304.06
2023-05-18T00:10:02.413Z,98298.19
2023-05-18T00:11:05.605Z,98302.19
2023-05-18T00:12:09.201Z,98301.09
2023-05-18T00:13:10.964Z,98302.94
2023-05-18T00:14:12.684Z,98302.94
2023-05-18T00:15:14.450Z,98301.88
2023-05-18T00:16:16.287Z,98300.28
2023-05-18T00:17:18.240Z,98308.50
2023-05-18T00:18:23.943Z,98299.91
2023-05-18T00:19:25.728Z,98296.94
2023-05-18T00:20:27.600Z,98294.53
2023-05-18T00:21:30.842Z,98307.34
2023-05-18T00:22:32.940Z,98306.28
2023-05-18T00:23:34.923Z,98309.47
2023-05-18T00:24:37.226Z,98306.00
2023-05-18T00:25:39.082Z,98305.47
2023-05-18T00:26:42.398Z,98312.88
2023-05-18T00:27:44.199Z,98304.84
2023-05-18T00:28:46.068Z,98305.53
2023-05-18T00:29:47.912Z,98297.00
2023-05-18T00:30:49.755Z,98301.75
2023-05-18T00:31:51.535Z,98302.00
2023-05-18T00:32:53.360Z,98299.84
2023-05-18T00:33:55.133Z,98303.19
2023-05-18T00:34:56.923Z,98298.56
2023-05-18T00:35:59.426Z,98292.03
2023-05-18T00:37:01.278Z,98297.22
2023-05-18T00:38:03.840Z,98294.31
2023-05-18T00:39:06.591Z,98299.63
2023-05-18T00:40:09.227Z,98296.72
2023-05-18T00:41:11.150Z,98296.25
2023-05-18T00:42:12.953Z,98295.44
2023-05-18T00:43:14.720Z,98301.00
2023-05-18T00:44:16.466Z,98299.38
2023-05-18T00:45:19.207Z,98296.72
2023-05-18T00:46:22.363Z,98303.66
2023-05-18T00:47:24.099Z,98300.19
2023-05-18T00:48:25.949Z,98301.31
2023-05-18T00:49:28.033Z,98297.88
2023-05-18T00:50:30.029Z,98302.59
2023-05-18T00:51:33.448Z,98299.31
2023-05-18T00:52:36.285Z,98292.13
2023-05-18T00:53:38.312Z,98302.22
2023-05-18T00:54:40.218Z,98300.78
2023-05-18T00:55:42.817Z,98277.44
2023-05-18T00:56:46.849Z,98290.81
2023-05-18T00:57:48.630Z,98284.69
2023-05-18T00:58:55.689Z,98282.19
2023-05-18T00:59:57.928Z,98284.56
2023-05-18T01:01:02.862Z,98285.59
2023-05-18T01:02:06.047Z,98276.50
2023-05-18T01:03:11.355Z,98271.44
2023-05-18T01:04:15.999Z,98273.84
2023-05-18T01:05:18.256Z,98273.28
2023-05-18T01:06:20.004Z,98275.38
2023-05-18T01:07:26.730Z,98264.03
2023-05-18T01:08:28.731Z,98267.81
2023-05-18T01:09:30.731Z,98273.13
2023-05-18T01:10:37.499Z,98276.13
2023-05-18T01:12:01.277Z,98266.78
2023-05-18T01:13:13.076Z,98278.66
2023-05-18T01:14:20.063Z,98287.44
2023-05-18T01:15:35.746Z,98287.66
2023-05-18T01:16:45.206Z,98274.56
2023-05-18T01:18:05.078Z,98284.22
2023-05-18T01:19:19.245Z,98277.88
2023-05-18T01:20:48.860Z,98286.38
2023-05-18T01:21:58.630Z,98283.75
2023-05-18T01:23:29.997Z,98286.63
2023-05-18T01:24:39.286Z,98288.25
2023-05-18T01:25:56.699Z,98295.22
2023-05-18T01:27:00.868Z,98292.19
2023-05-18T01:28:08.703Z,98296.16
2023-05-18T01:29:13.995Z,98282.03
2023-05-18T01:30:18.340Z,98297.53
2023-05-18T01:31:20.195Z,98298.06
2023-05-18T01:32:23.119Z,98291.94
2023-05-18T01:33:25.805Z,98285.50
2023-05-18T01:34:27.738Z,98302.38
2023-05-18T01:35:29.920Z,98295.22
2023-05-18T01:36:32.099Z,98284.53
2023-05-18T01:37:33.855Z,98297.88
2023-05-18T01:38:36.549Z,98297.88
2023-05-18T01:39:39.343Z,98296.75
2023-05-18T01:41:17.138Z,98299.97
2023-05-18T01:42:25.585Z,98295.47
2023-05-18T01:43:33.386Z,98295.69
2023-05-18T01:44:43.785Z,98303.25
2023-05-18T01:45:49.824Z,98299.38
2023-05-18T01:47:14.326Z,98309.56
2023-05-18T01:48:21.346Z,98308.69
2023-05-18T01:49:29.262Z,98316.25
2023-05-18T01:50:38.992Z,98322.13
2023-05-18T01:51:47.610Z,98319.94
2023-05-18T01:52:54.427Z,98316.72
2023-05-18T01:54:08.291Z,98323.97
2023-05-18T01:55:12.914Z,98323.97
2023-05-18T01:56:15.013Z,98323.31
2023-05-18T01:57:18.817Z,98317.44
2023-05-18T01:58:22.040Z,98309.69
2023-05-18T01:59:24.696Z,98325.97
2023-05-18T02:00:26.779Z,98328.84
2023-05-18T02:01:29.201Z,98325.25
2023-05-18T02:02:31.197Z,98331.50
2023-05-18T02:03:33.595Z,98331.69
2023-05-18T02:04:35.539Z,98322.13
2023-05-18T02:05:37.420Z,98326.41
2023-05-18T02:06:39.179Z,98328.25
2023-05-18T02:07:41.082Z,98321.56
2023-05-18T02:08:43.491Z,98324.22
2023-05-18T02:09:45.332Z,98333.53
2023-05-18T02:10:47.063Z,98330.69
2023-05-18T02:11:49.655Z,98333.34
2023-05-18T02:12:52.989Z,98338.63
2023-05-18T02:13:54.786Z,98337.38
2023-05-18T02:14:58.488Z,98340.03
2023-05-18T02:16:00.360Z,98341.88
2023-05-18T02:17:02.312Z,98345.88
2023-05-18T02:18:04.197Z,98353.00
2023-05-18T02:19:06.203Z,98341.50
2023-05-18T02:20:08.534Z,98344.94
2023-05-18T02:21:10.290Z,98356.69
2023-05-18T02:22:12.118Z,98350.34
2023-05-18T02:23:13.897Z,98349.81
2023-05-18T02:24:15.727Z,98348.63
2023-05-18T02:25:17.560Z,98359.84
2023-05-18T02:26:19.282Z,98359.00
2023-05-18T02:27:21.128Z,98356.59
2023-05-18T02:28:23.996Z,98360.84
2023-05-18T02:29:25.970Z,98358.44
2023-05-18T02:30:27.721Z,98367.19
2023-05-18T02:31:31.127Z,98361.88
2023-05-18T02:32:33.037Z,98361.88
2023-05-18T02:33:36.445Z,98364.78
2023-05-18T02:34:38.388Z,98365.94
2023-05-18T02:35:41.321Z,98364.66
2023-05-18T02:36:43.556Z,98361.47
2023-05-18T02:37:45.585Z,98360.16
2023-05-18T02:38:47.303Z,98358.88
2023-05-18T02:39:49.134Z,98360.97
2023-05-18T02:40:50.879Z,98368.69
2023-05-18T02:41:52.625Z,98363.06
2023-05-18T02:42:54.420Z,98360.97
2023-05-18T02:43:56.185Z,98364.19
2023-05-18T02:44:57.932Z,98359.13
2023-05-18T02:45:59.801Z,98364.41
2023-05-18T02:47:01.847Z,98363.38
2023-05-18T02:48:03.687Z,98341.16
2023-05-18T02:49:05.810Z,98360.84
2023-05-18T02:50:08.096Z,98368.56
2023-05-18T02:51:09.874Z,98368.56
2023-05-18T02:52:11.615Z,98372.81
2023-05-18T02:53:13.357Z,98373.84
2023-05-18T02:54:15.128Z,98369.38
2023-05-18T02:55:17.533Z,98372.25
2023-05-18T02:56:19.371Z,98372.00
2023-05-18T02:57:21.869Z,98371.78
2023-05-18T02:58:25.646Z,98372.81
2023-05-18T02:59:27.485Z,98373.41
2023-05-18T03:00:30.781Z,98374.16
2023-05-18T03:01:34.982Z,98387.19
2023-05-18T03:02:39.050Z,98384.00
2023-05-18T03:03:42.490Z,98384.13
2023-05-18T03:04:44.461Z,98379.53
2023-05-18T03:05:46.242Z,98385.09
2023-05-18T03:06:53.026Z,98387.81
2023-05-18T03:07:54.838Z,98378.41
2023-05-18T03:08:56.967Z,98381.91
2023-05-18T03:09:59.155Z,98375.56
2023-05-18T03:11:01.161Z,98379.84
2023-05-18T03:12:02.886Z,98377.91
2023-05-18T03:13:04.687Z,98382.84
2023-05-18T03:14:06.598Z,98386.19
2023-05-18T03:15:09.072Z,98380.44
2023-05-18T03:16:10.833Z,98386.19
2023-05-18T03:17:12.601Z,98385.16
2023-05-18T03:18:14.518Z,98391.50
2023-05-18T03:19:16.510Z,98395.41
2023-05-18T03:20:18.584Z,98393.78
2023-05-18T03:21:20.347Z,98394.72
2023-05-18T03:22:22.090Z,98400.69
2023-05-18T03:23:23.940Z,98395.50
2023-05-18T03:24:26.754Z,98400.22
2023-05-18T03:25:28.662Z,98399.56
2023-05-18T03:26:33.476Z,98405.44
2023-05-18T03:27:35.222Z,98404.84
2023-05-18T03:28:38.752Z,98406.69
2023-05-18T03:29:40.590Z,98406.69
2023-05-18T03:30:42.674Z,98404.94
2023-05-18T03:31:44.494Z,98393.44
2023-05-18T03:32:49.299Z,98401.13
2023-05-18T03:33:51.345Z,98400.19
2023-05-18T03:34:53.240Z,98398.56
2023-05-18T03:35:55.036Z,98401.34
2023-05-18T03:36:58.240Z,98395.81
2023-05-18T03:38:00.030Z,98405.81
2023-05-18T03:39:02.034Z,98408.00
2023-05-18T03:40:16.014Z,98404.91
2023-05-18T03:41:17.797Z,98394.88
2023-05-18T03:42:19.561Z,98395.69
2023-05-18T03:43:21.395Z,98400.03
2023-05-18T03:44:23.173Z,98402.56
2023-05-18T03:45:25.170Z,98397.81
2023-05-18T03:46:27.435Z,98407.00
2023-05-18T03:47:30.062Z,98398.81
2023-05-18T03:48:31.916Z,98411.69
2023-05-18T03:49:34.888Z,98408.56
2023-05-18T03:50:39.775Z,98407.53
2023-05-18T03:51:41.526Z,98413.47
2023-05-18T03:52:44.724Z,98411.16
2023-05-18T03:53:47.187Z,98414.94
2023-05-18T03:54:49.904Z,98404.31
2023-05-18T03:55:51.848Z,98406.84
2023-05-18T03:56:53.622Z,98413.28
2023-05-18T03:57:55.480Z,98409.31
2023-05-18T03:58:58.903Z,98411.50
2023-05-18T04:00:00.996Z,98414.16
2023-05-18T04:01:02.919Z,98406.78
2023-05-18T04:02:05.476Z,98416.91
2023-05-18T04:03:07.383Z,98409.53
2023-05-18T04:04:09.364Z,98419.41
2023-05-18T04:05:11.220Z,98420.78
2023-05-18T04:06:12.956Z,98414.75
2023-05-18T04:07:18.786Z,98414.53
2023-05-18T04:08:20.854Z,98414.81
2023-05-18T04:09:23.970Z,98415.06
2023-05-18T04:10:26.588Z,98421.19
2023-05-18T04:11:28.447Z,98417.25
2023-05-18T04:12:30.230Z,98420.22
2023-05-18T04:13:32.043Z,98420.00
2023-05-18T04:14:34.208Z,98433.84
2023-05-18T04:15:36.566Z,98424.25
2023-05-18T04:16:38.375Z,98423.75
2023-05-18T04:17:43.716Z,98432.84
2023-05-18T04:18:45.657Z,98427.06
2023-05-18T04:19:47.490Z,98433.75
2023-05-18T04:20:49.686Z,98433.25
2023-05-18T04:21:51.397Z,98434.63
2023-05-18T04:22:53.121Z,98432.78
2023-05-18T04:23:54.965Z,98431.50
2023-05-18T04:24:57.459Z,98426.78
2023-05-18T04:26:00.143Z,98439.06
2023-05-18T04:27:02.716Z,98419.25
2023-05-18T04:28:04.646Z,98437.22
2023-05-18T04:29:07.796Z,98435.59
2023-05-18T04:30:11.966Z,98446.56
2023-05-18T04:31:18.046Z,98448.16
2023-05-18T04:32:20.903Z,98445.50
2023-05-18T04:33:23.732Z,98442.84
2023-05-18T04:34:26.689Z,98443.66
2023-05-18T04:35:28.770Z,98445.84
2023-05-18T04:36:31.074Z,98443.44
2023-05-18T04:37:34.077Z,98445.59
2023-05-18T04:38:36.085Z,98448.25
2023-05-18T04:39:39.706Z,98457.34
2023-05-18T04:40:42.964Z,98450.97
2023-05-18T04:41:46.252Z,98453.97
2023-05-18T04:42:48.852Z,98447.84
2023-05-18T04:43:51.444Z,98447.84
2023-05-18T04:44:54.392Z,98452.97
2023-05-18T04:45:58.243Z,98449.25
2023-05-18T04:47:00.457Z,98463.69
2023-05-18T04:48:03.035Z,98453.84
2023-05-18T04:49:04.841Z,98451.19
2023-05-18T04:50:07.042Z,98453.84
2023-05-18T04:51:08.877Z,98456.03
2023-05-18T04:52:11.696Z,98457.66
2023-05-18T04:53:13.937Z,98453.63
2023-05-18T04:54:16.290Z,98456.53
2023-05-18T04:55:25.811Z,98466.09
2023-05-18T04:56:27.989Z,98466.00
2023-05-18T04:57:29.720Z,98467.56
2023-05-18T04:58:31.509Z,98470.75
2023-05-18T04:59:37.153Z,98468.38
2023-05-18T05:00:39.012Z,98471.34
2023-05-18T05:01:40.976Z,98468.09
2023-05-18T05:02:42.864Z,98468.91
2023-05-18T05:03:45.406Z,98473.13
2023-05-18T05:04:47.177Z,98480.84
2023-05-18T05:05:48.903Z,98472.06
2023-05-18T05:06:50.779Z,98471.75
2023-05-18T05:07:56.098Z,98475.44
2023-05-18T05:08:57.854Z,98477.88
2023-05-18T05:09:59.606Z,98467.72
2023-05-18T05:11:01.667Z,98471.50
2023-05-18T05:12:03.674Z,98467.25
2023-05-18T05:13:05.447Z,98473.94
2023-05-18T05:14:07.348Z,98474.50
2023-05-18T05:15:09.891Z,98465.41
2023-05-18T05:16:11.797Z,98474.97
2023-05-18T05:17:13.613Z,98469.34
2023-05-18T05:18:15.416Z,98477.16
2023-05-18T05:19:17.284Z,98478.72
2023-05-18T05:20:19.344Z,98477.97
2023-05-18T05:21:21.229Z,98468.63
2023-05-18T05:22:23.011Z,98474.00
2023-05-18T05:23:24.831Z,98474.56
2023-05-18T05:24:26.594Z,98481.25
2023-05-18T05:25:28.648Z,98473.50
2023-05-18T05:26:30.659Z,98482.63
2023-05-18T05:27:32.410Z,98478.34
2023-05-18T05:28:34.150Z,98478.91
2023-05-18T05:29:36.118Z,98487.44
2023-05-18T05:30:37.949Z,98477.88
2023-05-18T05:31:39.827Z,98472.13
2023-05-18T05:32:41.682Z,98483.09
2023-05-18T05:33:43.686Z,98484.47
2023-05-18T05:34:47.043Z,98486.31
2023-05-18T05:35:48.778Z,98492.19
2023-05-18T05:36:50.697Z,98483.09
2023-05-18T05:37:52.494Z,98491.38
2023-05-18T05:38:54.299Z,98491.16
2023-05-18T05:39:56.874Z,98495.97
2023-05-18T05:40:59.203Z,98490.63
2023-05-18T05:42:03.421Z,98492.81
2023-05-18T05:43:06.387Z,98506.44
2023-05-18T05:44:08.624Z,98499.50
2023-05-18T05:45:10.969Z,98507.25
2023-05-18T05:46:12.695Z,98509.34
2023-05-18T05:47:14.652Z,98508.28
2023-05-18T05:48:16.537Z,98512.31
2023-05-18T05:49:18.316Z,98509.34
2023-05-18T05:50:20.299Z,98507.97
2023-05-18T05:51:22.068Z,98501.78
2023-05-18T05:52:23.859Z,98511.09
2023-05-18T05:53:25.598Z,98501.38
2023-05-18T05:54:27.374Z,98518.78
2023-05-18T05:55:29.433Z,98513.69
2023-05-18T05:56:31.340Z,98522.00
2023-05-18T05:57:33.102Z,98524.72
2023-05-18T05:58:34.869Z,98517.78
2023-05-18T05:59:36.642Z,98516.94
2023-05-18T06:00:38.373Z,98515.94
2023-05-18T06:01:40.189Z,98520.47
2023-05-18T06:02:42.102Z,98524.50
2023-05-18T06:03:45.394Z,98524.25
2023-05-18T06:04:47.288Z,98529.00
2023-05-18T06:05:49.253Z,98533.50
2023-05-18T06:06:51.148Z,98524.97
2023-05-18T06:07:52.900Z,98527.06
2023-05-18T06:08:54.636Z,98530.06
2023-05-18T06:09:56.424Z,98529.31
2023-05-18T06:10:58.231Z,98533.81
2023-05-18T06:12:00.000Z,98537.03
2023-05-18T06:13:01.779Z,98522.56
2023-05-18T06:14:03.558Z,98533.19
2023-05-18T06:15:06.128Z,98538.16
2023-05-18T06:16:07.877Z,98528.81
2023-05-18T06:17:09.655Z,98533.34
2023-05-18T06:18:13.448Z,98523.31
2023-05-18T06:19:15.665Z,98531.84
2023-05-18T06:20:17.504Z,98539.47
2023-05-18T06:21:19.251Z,98525.56
2023-05-18T06:22:20.983Z,98541.97
2023-05-18T06:23:23.756Z,98537.06
2023-05-18T06:24:25.549Z,98539.38
2023-05-18T06:25:27.540Z,98548.56
2023-05-18T06:26:29.319Z,98547.75
2023-05-18T06:27:32.046Z,98551.88
2023-05-18T06:28:33.826Z,98561.47
2023-05-18T06:29:35.739Z,98559.13
2023-05-18T06:30:37.556Z,98559.63
2023-05-18T06:31:39.405Z,98552.13
2023-05-18T06:32:41.486Z,98563.88
2023-05-18T06:33:43.287Z,98555.69
2023-05-18T06:34:47.778Z,98557.19
2023-05-18T06:35:49.688Z,98554.78
2023-05-18T06:36:51.426Z,98567.34
2023-05-18T06:37:53.159Z,98573.88
2023-05-18T06:38:54.970Z,98560.03
2023-05-18T06:39:56.763Z,98575.03
2023-05-18T06:40:58.758Z,98576.44
2023-05-18T06:42:00.516Z,98575.97
2023-05-18T06:43:02.237Z,98573.53
2023-05-18T06:44:04.032Z,98575.97
2023-05-18T06:45:06.391Z,98576.53
2023-05-18T06:46:08.179Z,98581.84
2023-05-18T06:47:10.102Z,98579.59
2023-05-18T06:48:11.891Z,98586.41
2023-05-18T06:49:13.660Z,98585.72
2023-05-18T06:50:15.885Z,98589.47
2023-05-18T06:51:17.731Z,98586.50
2023-05-18T06:52:19.534Z,98594.25
2023-05-18T06:53:22.703Z,98592.63
2023-05-18T06:54:24.455Z,98594.34
2023-05-18T06:55:26.425Z,98598.19
2023-05-18T06:56:28.166Z,98595.41
2023-05-18T06:57:30.126Z,98600.72
2023-05-18T06:58:31.861Z,98601.16
2023-05-18T06:59:34.982Z,98607.88
2023-05-18T07:00:36.847Z,98607.97
2023-05-18T07:01:38.788Z,98609.72
2023-05-18T07:02:43.375Z,98607.53
2023-05-18T07:03:45.346Z,98607.53
2023-05-18T07:04:48.773Z,98611.47
2023-05-18T07:05:50.955Z,98611.13
2023-05-18T07:06:54.876Z,98611.50
2023-05-18T07:07:56.680Z,98615.50
2023-05-18T07:08:58.503Z,98617.00
2023-05-18T07:10:00.284Z,98613.09
2023-05-18T07:11:02.682Z,98614.34
2023-05-18T07:12:05.051Z,98614.25
2023-05-18T07:13:06.835Z,98617.25
2023-05-18T07:14:08.813Z,98616.22
2023-05-18T07:15:11.734Z,98609.06
2023-05-18T07:16:13.580Z,98611.50
2023-05-18T07:17:15.692Z,98604.22
2023-05-18T07:18:18.570Z,98607.69
2023-05-18T07:19:20.483Z,98614.16
2023-05-18T07:20:24.952Z,98609.75
2023-05-18T07:21:28.876Z,98610.44
2023-05-18T07:22:30.642Z,98606.69
2023-05-18T07:23:32.784Z,98617.41
2023-05-18T07:24:34.625Z,98607.34
2023-05-18T07:25:36.621Z,98617.94
2023-05-18T07:26:41.154Z,98622.06
2023-05-18T07:27:42.929Z,98621.00
2023-05-18T07:28:44.939Z,98615.78
2023-05-18T07:29:46.796Z,98614.56
2023-05-18T07:30:48.540Z,98627.22
2023-05-18T07:31:50.439Z,98615.63
2023-05-18T07:32:52.780Z,98627.16
2023-05-18T07:33:54.690Z,98619.50
2023-05-18T07:34:56.507Z,98626.28
2023-05-18T07:35:58.243Z,98624.53
2023-05-18T07:37:00.610Z,98628.84
2023-05-18T07:38:02.483Z,98625.16
2023-05-18T07:39:04.326Z,98627.41
2023-05-18T07:40:06.918Z,98628.97
2023-05-18T07:41:08.648Z,98622.59
2023-05-18T07:42:11.436Z,98624.53
2023-05-18T07:43:13.280Z,98618.09
2023-05-18T07:44:15.792Z,98620.00
2023-05-18T07:45:17.598Z,98625.19
2023-05-18T07:46:19.936Z,98619.47
2023-05-18T07:47:21.921Z,98622.19
2023-05-18T07:48:23.835Z,98624.22
2023-05-18T07:49:26.139Z,98623.41
2023-05-18T07:50:29.733Z,98623.31
2023-05-18T07:51:31.804Z,98622.84
2023-05-18T07:52:33.619Z,98622.34
2023-05-18T07:53:35.433Z,98625.25
2023-05-18T07:54:37.180Z,98621.78
2023-05-18T07:55:39.067Z,98622.59
2023-05-18T07:56:40.950Z,98619.75
2023-05-18T07:57:42.898Z,98634.44
2023-05-18T07:58:44.786Z,98623.22
2023-05-18T07:59:46.588Z,98625.88
2023-05-18T08:00:48.384Z,98630.63
2023-05-18T08:01:50.242Z,98622.25
2023-05-18T08:02:52.212Z,98624.69
2023-05-18T08:03:54.796Z,98624.44
2023-05-18T08:04:56.812Z,98634.28
2023-05-18T08:05:58.638Z,98627.75
2023-05-18T08:07:01.065Z,98641.22
2023-05-18T08:08:05.155Z,98634.84
2023-05-18T08:09:08.308Z,98641.59
2023-05-18T08:10:11.076Z,98638.00
2023-05-18T08:11:13.126Z,98642.50
2023-05-18T08:12:14.858Z,98625.25
2023-05-18T08:13:16.786Z,98643.47
2023-05-18T08:14:18.533Z,98641.84
2023-05-18T08:15:20.598Z,98649.81
2023-05-18T08:16:22.374Z,98654.66
2023-05-18T08:17:24.174Z,98651.53
2023-05-18T08:18:26.451Z,98653.94
2023-05-18T08:19:28.285Z,98653.72
2023-05-18T08:20:30.376Z,98648.28
2023-05-18T08:21:32.902Z,98655.81
2023-05-18T08:22:34.701Z,98663.69
2023-05-18T08:23:37.218Z,98664.56
2023-05-18T08:24:39.086Z,98660.47
2023-05-18T08:25:41.567Z,98658.53
2023-05-18T08:26:43.534Z,98659.34
2023-05-18T08:27:45.912Z,98658.91
2023-05-18T08:28:49.795Z,98674.97
2023-05-18T08:29:51.894Z,98671.88
2023-05-18T08:30:53.688Z,98672.44
2023-05-18T08:31:55.527Z,98670.34
2023-05-18T08:32:57.608Z,98664.47
2023-05-18T08:33:59.770Z,98669.00
2023-05-18T08:35:01.549Z,98677.53
2023-05-18T08:36:03.624Z,98675.13
2023-05-18T08:37:05.393Z,98667.06
2023-05-18T08:38:07.183Z,98676.59
2023-05-18T08:39:09.512Z,98679.81
2023-05-18T08:40:13.092Z,98676.91
2023-05-18T08:41:23.566Z,98676.63
2023-05-18T08:42:50.046Z,98677.22
2023-05-18T08:44:22.449Z,98673.91
2023-05-18T08:45:36.508Z,98681.00
2023-05-18T08:46:48.246Z,98682.81
2023-05-18T08:47:51.625Z,98681.56
2023-05-18T08:48:55.039Z,98680.78
2023-05-18T08:49:57.917Z,98693.03
2023-05-18T08:51:02.219Z,98690.38
2023-05-18T08:52:05.458Z,98692.53
2023-05-18T08:53:07.303Z,98694.16
2023-05-18T08:54:11.868Z,98694.31
2023-05-18T08:55:15.821Z,98696.41
2023-05-18T08:56:19.361Z,98692.22
2023-05-18T08:57:22.925Z,98694.97
2023-05-18T08:58:34.506Z,98696.91
2023-05-18T08:59:42.217Z,98702.06
2023-05-18T09:00:44.000Z,98703.66
2023-05-18T09:01:46.847Z,98706.88
2023-05-18T09:02:49.384Z,98700.84
2023-05-18T09:03:51.352Z,98700.16
2023-05-18T09:04:54.910Z,98704.28
2023-05-18T09:05:59.681Z,98706.13
2023-05-18T09:07:04.187Z,98703.78
2023-05-18T09:08:07.853Z,98704.56
2023-05-18T09:09:10.702Z,98712.06
2023-05-18T09:10:13.777Z,98712.63
2023-05-18T09:11:16.972Z,98710.31
2023-05-18T09:12:20.657Z,98708.50
2023-05-18T09:13:23.503Z,98706.19
2023-05-18T09:14:26.917Z,98708.25
2023-05-18T09:15:29.083Z,98714.81
2023-05-18T09:16:31.470Z,98716.50
2023-05-18T09:17:33.442Z,98717.53
2023-05-18T09:18:35.433Z,98712.47
2023-05-18T09:19:37.226Z,98719.19
2023-05-18T09:20:39.167Z,98719.53
2023-05-18T09:21:40.949Z,98718.84
2023-05-18T09:22:42.781Z,98718.09
2023-05-18T09:23:45.426Z,98725.28
2023-05-18T09:24:47.665Z,98723.97
2023-05-18T09:25:52.571Z,98716.53
2023-05-18T09:26:54.776Z,98723.28
2023-05-18T09:27:56.502Z,98725.94
2023-05-18T09:28:59.634Z,98725.38
2023-05-18T09:30:01.451Z,98724.94
2023-05-18T09:31:09.130Z,98726.09
2023-05-18T09:32:11.166Z,98732.81
2023-05-18T09:33:22.050Z,98732.66
2023-05-18T09:34:24.815Z,98731.44
2023-05-18T09:35:26.748Z,98730.69
2023-05-18T09:36:32.483Z,98723.25
2023-05-18T09:37:35.172Z,98735.28
2023-05-18T09:38:46.295Z,98736.88
2023-05-18T09:40:02.061Z,98725.97
2023-05-18T09:41:04.477Z,98729.19
2023-05-18T09:42:06.505Z,98730.00
2023-05-18T09:43:08.270Z,98728.41
2023-05-18T09:44:12.633Z,98739.16
2023-05-18T09:45:19.061Z,98734.38
2023-05-18T09:46:21.214Z,98735.19
2023-05-18T09:47:22.988Z,98740.94
2023-05-18T09:48:26.555Z,98735.06
2023-05-18T09:49:31.610Z,98739.06
2023-05-18T09:50:33.676Z,98735.69
2023-05-18T09:51:39.509Z,98743.44
2023-05-18T09:52:43.425Z,98748.53
2023-05-18T09:53:59.066Z,98744.09
2023-05-18T09:55:01.218Z,98743.06
2023-05-18T09:56:09.641Z,98749.50
2023-05-18T09:57:11.730Z,98745.28
2023-05-18T09:58:13.803Z,98744.44
2023-05-18T09:59:16.461Z,98748.50
2023-05-18T10:00:22.291Z,98755.69
2023-05-18T10:01:25.492Z,98754.16
2023-05-18T10:02:27.464Z,98749.91
2023-05-18T10:03:37.708Z,98754.19
2023-05-18T10:04:50.665Z,98752.09
2023-05-18T10:05:52.483Z,98751.03
2023-05-18T10:06:54.213Z,98757.97
2023-05-18T10:07:58.434Z,98747.56
2023-05-18T10:09:04.773Z,98741.13
2023-05-18T10:10:09.146Z,98756.72
2023-05-18T10:11:11.611Z,98761.47
2023-05-18T10:12:15.271Z,98755.53
2023-05-18T10:13:20.133Z,98761.94
2023-05-18T10:14:30.511Z,98759.81
2023-05-18T10:15:33.625Z,98759.28
2023-05-18T10:16:35.558Z,98760.66
2023-05-18T10:17:39.459Z,98765.50
2023-05-18T10:18:41.928Z,98760.41
2023-05-18T10:19:44.939Z,98765.50
2023-05-18T10:20:48.784Z,98756.94
2023-05-18T10:21:52.192Z,98762.34
2023-05-18T10:22:56.133Z,98764.53
2023-05-18T10:23:59.831Z,98759.75
2023-05-18T10:25:04.659Z,98763.00
2023-05-18T10:26:08.028Z,98756.59
2023-05-18T10:27:11.758Z,98762.78
2023-05-18T10:28:20.334Z,98757.97
2023-05-18T10:29:22.858Z,98760.41
2023-05-18T10:30:24.766Z,98755.31
2023-05-18T10:31:30.877Z,98759.31
2023-05-18T10:32:35.937Z,98754.75
2023-05-18T10:33:38.466Z,98752.88
2023-05-18T10:34:42.005Z,98760.66
2023-05-18T10:35:45.672Z,98760.88
2023-05-18T10:36:47.455Z,98759.78
2023-05-18T10:37:53.334Z,98767.78
2023-05-18T10:38:56.096Z,98764.59
2023-05-18T10:40:00.129Z,98760.59
2023-05-18T10:41:03.290Z,98770.25
2023-05-18T10:42:08.819Z,98765.69
2023-05-18T10:43:11.426Z,98764.13
2023-05-18T10:44:13.257Z,98757.97
2023-05-18T10:45:15.714Z,98758.72
2023-05-18T10:46:18.664Z,98769.19
2023-05-18T10:47:20.905Z,98764.59
2023-05-18T10:48:24.095Z,98756.03
2023-05-18T10:49:27.398Z,98752.81
2023-05-18T10:50:32.392Z,98765.16
2023-05-18T10:51:35.778Z,98768.38
2023-05-18T10:52:38.532Z,98766.78
2023-05-18T10:53:43.983Z,98767.63
2023-05-18T10:54:46.718Z,98771.63
2023-05-18T10:55:49.870Z,98771.91
2023-05-18T10:56:53.955Z,98772.44
2023-05-18T10:58:05.852Z,98774.81
2023-05-18T10:59:08.622Z,98781.25
2023-05-18T11:00:10.893Z,98776.44
2023-05-18T11:01:13.935Z,98773.22
2023-05-18T11:02:19.806Z,98768.66
2023-05-18T11:03:22.563Z,98774.03
2023-05-18T11:04:29.859Z,98761.19
2023-05-18T11:05:31.822Z,98776.44
2023-05-18T11:06:35.430Z,98778.63
2023-05-18T11:07:40.069Z,98777.25
2023-05-18T11:08:49.707Z,98768.94
2023-05-18T11:09:52.243Z,98772.41
2023-05-18T11:11:07.599Z,98770.03
2023-05-18T11:12:14.343Z,98773.50
2023-05-18T11:13:16.265Z,98757.72
2023-05-18T11:14:26.480Z,98771.91
2023-05-18T11:15:56.640Z,98776.44
2023-05-18T11:17:17.422Z,98765.50
2023-05-18T11:18:19.540Z,98766.28
2023-05-18T11:19:26.528Z,98769.53
2023-05-18T11:20:28.322Z,98774.06
2023-05-18T11:21:36.528Z,98779.16
2023-05-18T11:22:57.166Z,98775.16
2023-05-18T11:24:31.372Z,98782.38
2023-05-18T11:25:33.166Z,98774.31
2023-05-18T11:26:40.628Z,98775.13
2023-05-18T11:27:42.401Z,98779.94
2023-05-18T11:28:44.572Z,98778.03
2023-05-18T11:29:51.914Z,98780.69
2023-05-18T11:30:57.464Z,98781.22
2023-05-18T11:31:59.383Z,98781.78
2023-05-18T11:33:11.785Z,98789.53
2023-05-18T11:34:38.194Z,98780.69
2023-05-18T11:36:09.817Z,98790.88
2023-05-18T11:37:16.309Z,98799.69
2023-05-18T11:38:18.602Z,98786.56
2023-05-18T11:39:24.749Z,98785.50
2023-05-18T11:40:49.747Z,98789.28
2023-05-18T11:42:08.018Z,98780.75
2023-05-18T11:43:10.572Z,98785.56
2023-05-18T11:44:12.606Z,98788.00
2023-05-18T11:45:14.439Z,98792.81
2023-05-18T11:46:21.566Z,98783.19
2023-05-18T11:47:31.245Z,98789.34
2023-05-18T11:48:33.565Z,98798.72
2023-05-18T11:49:47.368Z,98792.81
2023-05-18T11:50:49.517Z,98799.00
2023-05-18T11:52:02.333Z,98799.28
2023-05-18T11:53:04.188Z,98802.78
2023-05-18T11:54:09.181Z,98799.56
2023-05-18T11:55:15.225Z,98802.25
2023-05-18T11:56:17.530Z,98798.50
2023-05-18T11:57:40.952Z,98804.66
2023-05-18T11:58:42.747Z,98810.84
2023-05-18T11:59:48.586Z,98808.66
2023-05-18T12:00:51.406Z,98805.22
2023-05-18T12:01:56.929Z,98809.75
2023-05-18T12:03:01.570Z,98808.16
2023-05-18T12:04:04.508Z,98806.53
2023-05-18T12:05:10.256Z,98800.91
2023-05-18T12:06:12.196Z,98805.97
2023-05-18T12:07:15.175Z,98803.59
2023-05-18T12:08:20.507Z,98801.72
2023-05-18T12:09:22.550Z,98799.84
2023-05-18T12:10:24.385Z,98805.97
2023-05-18T12:11:26.831Z,98809.47
2023-05-18T12:12:29.027Z,98808.66
2023-05-18T12:13:30.874Z,98808.66
2023-05-18T12:14:35.696Z,98802.50
2023-05-18T12:15:38.258Z,98810.81
2023-05-18T12:16:40.703Z,98815.09
2023-05-18T12:17:49.646Z,98805.72
2023-05-18T12:18:52.107Z,98806.53
2023-05-18T12:19:53.972Z,98812.97
2023-05-18T12:20:55.830Z,98810.00
2023-05-18T12:21:58.968Z,98814.56
2023-05-18T12:23:01.324Z,98818.31
2023-05-18T12:24:03.967Z,98820.22
2023-05-18T12:25:06.780Z,98821.00
2023-05-18T12:26:08.703Z,98820.22
2023-05-18T12:27:12.181Z,98829.84
2023-05-18T12:28:14.319Z,98819.41